MMSP 090641Z 00000KT 5SM SKC 07/M01 A3025 RMK HZ FU OVR STN= 090642

MMSP 090545Z 00000KT 8SM SKC 10/M01 A3025 RMK SLP135 52021 904 HZY FU= 090546

MMSP 090445Z 00000KT 8SM SKC 12/01 A3025 RMK HZY= 090447

MMSP 090340Z 00000KT 8SM SKC 14/02 A3024 RMK HZY= 090340

MMSP 090252Z 00000KT 8SM SKC 14/07 A3024 RMK SLP131 52011 954= 090252

MMSP 090143Z 00000KT 8SM SKC 18/04 A3021 RMK CI= 090143

MMSP 090049Z 00000KT 10SM FEW230 20/02 A3018 RMK 8/001= 090050

MMSP 082346Z 00000KT 12SM SCT230 24/M03 A3016 RMK SLP106 57001 906 8/001= 082347

MMSP 082249Z 12007KT 12SM BKN230 27/M03 A3015 RMK 8/008= 082249

MMSP 082152Z 12004KT 12SM BKN230 27/M03 A3015 RMK 8/008= 082153

MMSP 082048Z 11004KT 12SM SCT230 27/M03 A3016 RMK SLP078 57034 901 8/004= 082048

MMSP 081948Z 14003KT 12SM FEW230 26/M08 A3019 RMK 8/001= 081949

MMSP 081843Z 19004KT 12SM FEW230 24/M05 A3023 RMK 8/001= 081843

MMSP 081747Z 00000KT 12SM FEW230 23/M04 A3027 RMK SLP128 52008 951 8/001= 081748

MMSP 081648Z 00000KT 12SM FEW230 19/M02 A3030 RMK 8/001= 081649

MMSP 081542Z 17003KT 10SM SCT230 16/M02 A3032 RMK 8/001= 081543

MMSP 081442Z 00000KT 10SM SCT230 12/M02 A3032 RMK SLP136 52003 972 8/001= 081444

MMSP 081350Z 28003KT 8SM SCT230 05/M03 A3030 RMK 8/001 HZY= 081351

MMSP 081240Z 00000KT 7SM SKC 05/M01 A3027 RMK FU CI= 081240

MMSP 081143Z 00000KT 5SM SKC 05/00 A3025 RMK SLP132 52001 960 FU= 081143

MMSP 081040Z 00000KT 7SM SKC 06/M02 A3024 RMK FE= 081040

MMSP 080958Z RTD 00000KT 7SM SKC 07/M02 A3024 RMK FU= 081006

MMSP 080842Z 00000KT 7SM SKC 10/00 A3024 RMK SLP110 57005 964 FU= 080843

MMSP 080740Z 00000KT 7SM SKC 09/00 A3024 RMK FU= 080740

MMSP 080640Z 00000KT 7SM SKC 11/01 A3024 RMK FU= 080640

MMSP 080542Z 20004KT 7SM SKC 13/03 A3024 RMK SLP130 52013 961 FU= 080542

MMSP 080453Z 00000KT 8SM SKC 13/08 A3024 RMK FU= 080454

MMSP 080340Z 00000KT 8SM SKC 15/M04 A3022 RMK FU= 080340

MMSP 080246Z 11004KT 8SM SKC 18/M01 A3021 RMK SLP124 52021 965 FU= 080246

MMSP 080148Z 21004KT 8SM SKC 19/00 A3019 RMK CI= 080149

MMSP 080052Z 25006KT 10SM SKC 21/01 A3017 RMK CI= 080052

MMSP 072355Z 25006KT 12SM SKC 25/M01 A3015 RMK SLP085 57006 981 CI= 072355

MMSP 072249Z 28010KT 12SM SKC 27/00 A3012= 072251

MMSP 072148Z 26006KT 12SM SKC 26/M03 A3012= 072148

MMSP 072051Z 24005KT 10SM SKC 26/M01 A3013 RMK SLP082 57036 979= 072053

MMSP 071946Z 00000KT 8SM SKC 24/04 A3017 RMK HZY= 071947

MMSP 071841Z 00000KT 10SM SKC 22/05 A3022 RMK ISOL CI= 071842

MMSP 071748Z 14003KT 8SM SKC 19/08 A3026 RMK SLP140 57013 912 HZY FU= 071749

MMSP 071648Z 17003KT 6SM SKC 17/09 A3030 RMK LWR VSBY N NNW HZY FU= 071648

MMSP 071543Z 14007KT 4SM FEW250 15/08 A3031 RMK 8/001 HZ FU= 071544

MMSP 071446Z 00000KT 5SM FEW250 11/08 A3030 RMK SLP174 52015 917 8/001 HZ FU= 071447

MMSP 071345Z 00000KT 5SM SKC 07/05 A3029 RMK BR HZ FU ISOL CI= 071345

MMSP 071240Z 30004KT 5SM SKC 06/04 A3027 RMK HZ ISOL CI= 071240

MMSP 071141Z 00000KT 6SM SKC 08/06 A3025 RMK SLP145 57003 905 HZY= 071141

MMSP 071047Z 10003KT 7SM SKC 09/07 A3025 RMK HZY= 071047

MMSP 070948Z 11003KT 7SM SKC 09/06 A3026 RMK HZY= 070948

MMSP 070841Z 10003KT 8SM SKC 10/06 A3027 RMK SLP138 57002 909 HZY= 070843

MMSP 070745Z 05003KT 8SM SKC 10/04 A3027 RMK HZY= 070745

MMSP 070642Z 00000KT 8SM SKC 11/04 A3027 RMK HZY= 070642

MMSP 070541Z 14003KT 8SM SKC 13/04 A3027 RMK SLP136 57009 911 HZY= 070542